Time;durP1;ratioP1;P1;durP2;ratioP2;P2;SDS_P1;SDS_P2;PMS_P1;PMS_P2;Temp;Humidity;BMP_temperature;BMP_pressure;BME280_temperature;BME280_humidity;BME280_pressure;Samples;Min_cycle;Max_cycle;Signal;HPM_P1;HPM_P2
2023/06/27 00:02:21;;;;;;;4.10;3.33;;;;;;;18.51;88.53;96996.69;4955240;28;20716;-69
2023/06/27 00:04:51;;;;;;;5.23;3.50;;;;;;;18.46;89.02;96999.28;4959926;28;20321;-69
2023/06/27 00:07:27;;;;;;;4.17;3.63;;;;;;;18.45;89.74;96998.47;4853118;28;20309;-70
2023/06/27 00:09:55;;;;;;;3.23;2.93;;;;;;;18.40;90.21;97003.75;4950983;28;20212;-70
2023/06/27 00:12:23;;;;;;;3.27;3.03;;;;;;;18.40;91.54;97006.44;4955061;28;20229;-69
2023/06/27 00:14:51;;;;;;;3.60;3.20;;;;;;;18.33;92.72;97003.88;4955530;28;20765;-69
2023/06/27 00:17:22;;;;;;;4.07;3.67;;;;;;;18.18;95.78;97001.72;4958055;28;20281;-69
2023/06/27 00:19:57;;;;;;;4.07;3.77;;;;;;;18.21;95.45;96998.53;4951345;28;20203;-70
2023/06/27 00:22:26;;;;;;;5.73;3.43;;;;;;;18.21;95.71;97000.44;4904420;28;20332;-71
2023/06/27 00:24:54;;;;;;;3.80;3.50;;;;;;;18.12;96.41;97013.38;4955916;28;20238;-68
2023/06/27 00:27:22;;;;;;;4.87;3.40;;;;;;;18.08;97.18;97015.72;4951264;28;20290;-67
2023/06/27 00:29:49;;;;;;;3.37;3.03;;;;;;;18.09;97.63;97016.53;4950760;28;20203;-69
2023/06/27 00:32:17;;;;;;;3.60;3.30;;;;;;;18.02;98.10;97016.66;4907853;28;20230;-69
2023/06/27 00:34:44;;;;;;;3.90;3.60;;;;;;;17.94;100.00;97020.47;4954887;28;20250;-69
2023/06/27 00:37:13;;;;;;;3.70;3.27;;;;;;;17.84;100.00;97009.53;4950525;28;20234;-71
2023/06/27 00:39:41;;;;;;;6.70;4.20;;;;;;;17.81;100.00;97012.69;4954572;28;20879;-69
2023/06/27 00:42:09;;;;;;;6.23;3.60;;;;;;;17.72;100.00;97031.00;4848167;28;20245;-68
2023/06/27 00:44:37;;;;;;;3.80;3.50;;;;;;;17.70;100.00;97027.72;4952054;28;20330;-69
2023/06/27 00:47:05;;;;;;;3.53;3.03;;;;;;;17.69;100.00;97028.78;4953920;28;20246;-69
2023/06/27 00:49:33;;;;;;;3.93;3.63;;;;;;;17.55;100.00;97016.69;4955398;28;20234;-68
2023/06/27 00:52:00;;;;;;;3.77;3.20;;;;;;;17.59;100.00;97028.56;4950951;28;20333;-69
2023/06/27 00:54:30;;;;;;;5.70;3.43;;;;;;;17.59;100.00;97024.00;4951061;28;20519;-69
2023/06/27 00:56:58;;;;;;;4.33;3.53;;;;;;;17.59;100.00;97028.56;4947095;28;20549;-71
2023/06/27 00:59:26;;;;;;;5.90;4.23;;;;;;;17.53;100.00;97035.66;4956921;28;20708;-68
2023/06/27 01:01:53;;;;;;;3.90;3.60;;;;;;;17.51;100.00;97035.06;4953902;28;20288;-69
2023/06/27 01:04:21;;;;;;;3.60;3.30;;;;;;;17.49;100.00;97035.31;4957210;28;20237;-69
2023/06/27 01:06:56;;;;;;;4.70;4.20;;;;;;;17.44;100.00;97029.84;4890142;28;20367;-69
2023/06/27 01:09:28;;;;;;;8.93;3.83;;;;;;;17.52;100.00;97043.94;4909181;28;20240;-70
2023/06/27 01:12:02;;;;;;;4.13;3.80;;;;;;;17.39;100.00;97021.66;4928817;28;20234;-68
2023/06/27 01:14:31;;;;;;;4.97;3.50;;;;;;;17.47;100.00;97033.91;4893937;28;20220;-69
2023/06/27 01:17:00;;;;;;;5.37;3.40;;;;;;;17.42;100.00;97039.94;4954278;28;20248;-69
2023/06/27 01:19:30;;;;;;;7.40;4.10;;;;;;;17.39;100.00;97043.09;4950211;28;20733;-70
2023/06/27 01:22:02;;;;;;;4.40;4.00;;;;;;;17.36;100.00;97047.06;4935714;28;20629;-68
2023/06/27 01:24:31;;;;;;;4.00;3.70;;;;;;;17.35;100.00;97050.78;4920796;28;20202;-69
2023/06/27 01:27:00;;;;;;;5.47;4.20;;;;;;;17.31;100.00;97054.13;4886480;28;20442;-68
2023/06/27 01:29:29;;;;;;;4.10;3.80;;;;;;;17.29;100.00;97059.75;4953376;28;20211;-69
2023/06/27 01:32:02;;;;;;;4.13;3.60;;;;;;;17.23;100.00;97052.59;4951879;28;20249;-69
2023/06/27 01:34:33;;;;;;;5.63;4.10;;;;;;;17.27;100.00;97053.81;4957516;28;20309;-68
2023/06/27 01:37:06;;;;;;;5.17;3.60;;;;;;;17.24;100.00;97059.63;4950216;28;20870;-69
2023/06/27 01:39:38;;;;;;;3.50;3.20;;;;;;;17.11;100.00;97060.63;4945756;28;20491;-68
2023/06/27 01:42:09;;;;;;;4.13;3.47;;;;;;;17.03;100.00;97072.47;4894962;28;20249;-69
2023/06/27 01:44:37;;;;;;;5.13;3.53;;;;;;;17.02;100.00;97067.34;4950508;28;20310;-70
2023/06/27 01:47:05;;;;;;;4.47;3.37;;;;;;;16.98;100.00;97060.81;4850602;28;20239;-68
2023/06/27 01:49:33;;;;;;;4.30;3.43;;;;;;;17.03;100.00;97063.63;4958047;28;20230;-69
2023/06/27 01:52:01;;;;;;;3.87;3.57;;;;;;;17.04;100.00;97055.38;4953159;28;20304;-68
2023/06/27 01:54:28;;;;;;;2.73;2.63;;;;;;;16.99;100.00;97063.28;4948452;28;20214;-68
2023/06/27 01:56:57;;;;;;;3.27;3.00;;;;;;;16.85;100.00;97035.03;4889721;28;20272;-71
2023/06/27 01:59:25;;;;;;;3.80;3.30;;;;;;;17.01;100.00;97066.53;4954579;28;20777;-70
2023/06/27 02:01:53;;;;;;;3.57;3.37;;;;;;;17.01;100.00;97066.53;4950674;28;20270;-69
2023/06/27 02:04:20;;;;;;;4.70;3.20;;;;;;;17.01;100.00;97068.38;4957756;28;20202;-68
2023/06/27 02:06:48;;;;;;;3.73;2.53;;;;;;;17.00;100.00;97064.06;4955697;28;20326;-69
2023/06/27 02:09:16;;;;;;;3.93;2.60;;;;;;;16.97;100.00;97073.34;4947239;28;20206;-69
2023/06/27 02:11:43;;;;;;;3.83;2.60;;;;;;;17.03;100.00;97067.13;4884249;28;20242;-69
2023/06/27 02:14:12;;;;;;;3.10;2.90;;;;;;;17.05;100.00;97069.59;4948578;28;20582;-71
2023/06/27 02:16:40;;;;;;;2.53;2.33;;;;;;;17.03;100.00;97071.66;4848103;28;20206;-71
2023/06/27 02:19:07;;;;;;;2.83;2.60;;;;;;;17.02;100.00;97076.19;4953662;28;20257;-71
2023/06/27 02:21:35;;;;;;;2.77;2.57;;;;;;;17.01;100.00;97081.75;4950157;28;20250;-70
2023/06/27 02:24:03;;;;;;;2.17;2.07;;;;;;;17.02;100.00;97080.72;4955344;28;20748;-68
2023/06/27 02:26:30;;;;;;;4.93;2.53;;;;;;;16.98;99.56;97084.91;4898715;28;20321;-69
2023/06/27 02:28:58;;;;;;;4.20;2.60;;;;;;;17.03;96.00;97085.03;4948996;28;20210;-69
2023/06/27 02:31:27;;;;;;;2.07;1.97;;;;;;;17.06;94.36;97084.59;4954703;28;20309;-71
2023/06/27 02:33:55;;;;;;;2.93;2.20;;;;;;;16.99;94.20;97095.38;4946706;28;20210;-71
2023/06/27 02:36:25;;;;;;;3.27;2.30;;;;;;;16.98;93.73;97090.25;4882965;28;20226;-69
2023/06/27 02:38:54;;;;;;;5.80;2.07;;;;;;;16.87;93.96;97084.59;4955477;28;20234;-68
2023/06/27 02:41:22;;;;;;;4.30;2.20;;;;;;;16.88;93.71;97090.78;4954003;28;20456;-71
2023/06/27 02:43:50;;;;;;;2.43;2.17;;;;;;;16.83;94.66;97091.44;4941347;28;20224;-69
2023/06/27 02:46:17;;;;;;;3.90;2.20;;;;;;;16.83;92.43;97096.81;4833475;28;20321;-69
2023/06/27 02:48:46;;;;;;;2.13;2.00;;;;;;;16.80;93.65;97097.25;4954555;28;20214;-67
2023/06/27 02:51:14;;;;;;;2.20;2.00;;;;;;;16.81;93.51;97106.91;4848926;28;20330;-67
2023/06/27 02:53:42;;;;;;;2.50;2.30;;;;;;;16.75;93.16;97092.56;4952497;28;20285;-68
2023/06/27 02:56:09;;;;;;;2.23;1.97;;;;;;;16.75;92.62;97103.28;4951232;28;20519;-71
2023/06/27 02:58:37;;;;;;;2.00;1.90;;;;;;;16.83;92.37;97109.34;4937528;28;20389;-71
2023/06/27 03:01:06;;;;;;;3.00;1.83;;;;;;;16.74;95.13;97115.03;4871857;28;20897;-69
2023/06/27 03:03:34;;;;;;;4.10;1.87;;;;;;;16.76;94.77;97114.81;4930487;28;20203;-70
2023/06/27 03:06:08;;;;;;;2.40;2.07;;;;;;;16.73;95.38;97116.06;4933798;28;20199;-69
2023/06/27 03:08:37;;;;;;;6.77;2.40;;;;;;;16.71;95.29;97120.81;4939105;28;20573;-67
2023/06/27 03:11:05;;;;;;;5.20;2.40;;;;;;;16.72;94.69;97124.34;4920401;28;20255;-71
2023/06/27 03:13:33;;;;;;;5.73;2.23;;;;;;;16.62;96.36;97122.19;4927883;28;20219;-69
2023/06/27 03:16:01;;;;;;;1.93;1.73;;;;;;;16.66;95.54;97123.34;4878388;28;21973;-71
2023/06/27 03:18:29;;;;;;;2.37;2.17;;;;;;;16.63;96.54;97121.94;4932838;28;20643;-72
2023/06/27 03:20:57;;;;;;;6.87;2.13;;;;;;;16.60;96.37;97122.38;4931478;28;20238;-70
2023/06/27 03:23:25;;;;;;;2.20;2.10;;;;;;;16.62;97.93;97127.53;4938744;28;20259;-68
2023/06/27 03:25:53;;;;;;;2.03;1.80;;;;;;;16.61;96.04;97132.03;4865395;28;20317;-69
2023/06/27 03:28:21;;;;;;;3.87;2.90;;;;;;;16.61;96.92;97131.25;4928703;28;20314;-71
2023/06/27 03:30:48;;;;;;;3.70;2.10;;;;;;;16.66;96.36;97134.06;4887090;28;20539;-69
2023/06/27 03:33:16;;;;;;;2.53;2.33;;;;;;;16.59;98.63;97130.66;4942607;28;20215;-71
2023/06/27 03:35:44;;;;;;;1.97;1.87;;;;;;;16.63;97.03;97135.31;4946647;28;20239;-70
2023/06/27 03:38:11;;;;;;;3.30;2.57;;;;;;;16.62;98.64;97135.56;4936882;28;20575;-71
2023/06/27 03:40:41;;;;;;;2.47;2.23;;;;;;;16.56;98.40;97131.09;4927298;28;20999;-70
2023/06/27 03:43:11;;;;;;;1.80;1.70;;;;;;;16.58;98.21;97134.38;4934912;28;20227;-70
2023/06/27 03:45:40;;;;;;;2.57;2.33;;;;;;;16.45;100.00;97130.78;4884001;28;20305;-67
2023/06/27 03:48:09;;;;;;;2.13;1.93;;;;;;;16.45;96.76;97124.63;4937420;28;20312;-69
2023/06/27 03:50:37;;;;;;;2.13;1.80;;;;;;;16.58;98.48;97139.72;4935856;28;20619;-70
2023/06/27 03:53:04;;;;;;;1.53;1.43;;;;;;;16.57;97.66;97130.06;4931097;28;20207;-72
2023/06/27 03:55:33;;;;;;;3.27;2.43;;;;;;;16.52;97.02;97133.41;4936778;28;20218;-71
2023/06/27 03:58:02;;;;;;;2.73;2.07;;;;;;;16.47;97.73;97138.59;4930880;28;20246;-72
2023/06/27 04:00:30;;;;;;;4.33;2.77;;;;;;;16.48;95.69;97138.38;4875781;28;20813;-68
2023/06/27 04:02:58;;;;;;;2.10;2.00;;;;;;;16.51;95.52;97138.97;4904167;28;20215;-70
2023/06/27 04:05:26;;;;;;;1.90;1.80;;;;;;;16.46;96.91;97151.13;4911088;28;20257;-70
2023/06/27 04:07:54;;;;;;;2.60;1.83;;;;;;;16.48;96.40;97166.97;4918253;28;20219;-70
2023/06/27 04:10:22;;;;;;;2.73;2.23;;;;;;;16.43;97.16;97166.81;4937432;28;20218;-67
2023/06/27 04:12:49;;;;;;;2.47;2.03;;;;;;;16.45;97.65;97154.84;4865581;28;20854;-70
2023/06/27 04:15:18;;;;;;;2.97;1.90;;;;;;;16.47;98.33;97154.66;4932078;28;20299;-70
2023/06/27 04:17:46;;;;;;;3.17;2.43;;;;;;;16.34;98.94;97163.63;4880840;28;20788;-70
2023/06/27 04:20:14;;;;;;;2.30;1.90;;;;;;;16.41;99.86;97164.38;4929571;28;20529;-69
2023/06/27 04:22:42;;;;;;;3.07;2.00;;;;;;;16.43;100.00;97159.59;4937164;28;20202;-72
2023/06/27 04:25:11;;;;;;;1.90;1.80;;;;;;;16.35;100.00;97160.75;4937494;28;20313;-69
2023/06/27 04:27:38;;;;;;;2.93;1.70;;;;;;;16.35;100.00;97155.38;4934229;28;20235;-73
2023/06/27 04:30:07;;;;;;;2.50;2.30;;;;;;;16.33;100.00;97161.97;4927970;28;20267;-70
2023/06/27 04:32:38;;;;;;;2.40;1.80;;;;;;;16.32;100.00;97166.53;4871339;28;20688;-69
2023/06/27 04:35:07;;;;;;;2.03;1.63;;;;;;;16.29;100.00;97161.63;4920603;28;20207;-69
2023/06/27 04:37:36;;;;;;;4.03;2.53;;;;;;;16.34;100.00;97169.78;4919730;28;20314;-72
2023/06/27 04:40:06;;;;;;;3.60;2.00;;;;;;;16.41;100.00;97174.25;4929825;28;20217;-70
2023/06/27 04:42:33;;;;;;;3.03;1.97;;;;;;;16.41;100.00;97182.28;4933816;28;20250;-71
2023/06/27 04:45:01;;;;;;;1.73;1.63;;;;;;;16.42;100.00;97175.88;4925851;28;20306;-69
2023/06/27 04:47:29;;;;;;;6.10;1.80;;;;;;;16.38;100.00;97169.34;4904741;28;20979;-70
2023/06/27 04:49:58;;;;;;;2.07;1.87;;;;;;;16.46;100.00;97179.75;4917977;28;20285;-70
2023/06/27 04:52:26;;;;;;;2.93;2.40;;;;;;;16.52;100.00;97186.09;4931919;28;20741;-69
2023/06/27 04:54:54;;;;;;;2.83;2.17;;;;;;;16.60;100.00;97189.25;4936778;28;20235;-69
2023/06/27 04:57:21;;;;;;;1.73;1.63;;;;;;;16.52;100.00;97189.56;4931616;28;20351;-71
2023/06/27 04:59:49;;;;;;;2.17;2.07;;;;;;;16.55;100.00;97188.31;4929257;28;20326;-68
2023/06/27 05:02:16;;;;;;;2.93;1.90;;;;;;;16.54;100.00;97189.34;4935234;28;20255;-69
2023/06/27 05:04:44;;;;;;;1.80;1.60;;;;;;;16.66;100.00;97190.22;4839509;28;20218;-69
2023/06/27 05:07:13;;;;;;;4.10;1.63;;;;;;;16.77;100.00;97192.16;4941531;28;20663;-69
2023/06/27 05:09:41;;;;;;;2.97;1.90;;;;;;;16.72;100.00;97189.34;4881522;28;20218;-69
2023/06/27 05:12:09;;;;;;;1.80;1.70;;;;;;;16.66;100.00;97189.41;4934121;28;20254;-69
2023/06/27 05:14:36;;;;;;;2.37;2.27;;;;;;;16.71;100.00;97190.38;4929791;28;20289;-68
2023/06/27 05:17:04;;;;;;;2.20;2.03;;;;;;;16.72;100.00;97201.91;4940912;28;20230;-68
2023/06/27 05:19:32;;;;;;;1.97;1.80;;;;;;;16.68;100.00;97198.03;4876049;28;20683;-68
2023/06/27 05:21:59;;;;;;;2.27;2.10;;;;;;;16.66;100.00;97198.25;4940914;28;20246;-70
2023/06/27 05:24:28;;;;;;;1.83;1.63;;;;;;;16.67;100.00;97197.22;4931868;28;20271;-70
2023/06/27 05:26:56;;;;;;;4.53;2.10;;;;;;;16.62;100.00;97203.22;4933390;28;21372;-68
2023/06/27 05:29:23;;;;;;;2.20;2.00;;;;;;;16.61;100.00;97206.94;4931557;28;20231;-70
2023/06/27 05:31:53;;;;;;;3.27;2.00;;;;;;;16.62;100.00;97207.78;4940041;28;20333;-70
2023/06/27 05:34:21;;;;;;;3.03;2.13;;;;;;;16.57;100.00;97196.94;4885536;28;20707;-69
2023/06/27 05:36:48;;;;;;;1.93;1.83;;;;;;;16.58;100.00;97214.59;4938544;28;20309;-70
2023/06/27 05:39:16;;;;;;;2.63;2.07;;;;;;;16.70;100.00;97220.03;4842918;28;20214;-68
2023/06/27 05:41:45;;;;;;;1.90;1.80;;;;;;;16.60;100.00;97209.84;4937667;28;20717;-68
2023/06/27 05:44:13;;;;;;;4.13;2.07;;;;;;;16.72;100.00;97217.97;4929075;28;20886;-68
2023/06/27 05:46:44;;;;;;;2.03;1.80;;;;;;;16.73;100.00;97225.75;4936589;28;20289;-69
2023/06/27 05:49:11;;;;;;;2.60;2.03;;;;;;;16.67;100.00;97232.00;4930330;28;20290;-69
2023/06/27 05:51:39;;;;;;;2.00;1.90;;;;;;;16.64;100.00;97229.75;4935325;28;20273;-69
2023/06/27 05:54:07;;;;;;;2.10;1.90;;;;;;;16.68;100.00;97230.16;4882993;28;20842;-68
2023/06/27 05:56:35;;;;;;;2.13;1.90;;;;;;;16.73;100.00;97231.09;4930218;28;20317;-69
2023/06/27 05:59:04;;;;;;;5.23;2.37;;;;;;;16.74;100.00;97226.56;4928096;28;20504;-69
2023/06/27 06:01:32;;;;;;;4.10;1.70;;;;;;;16.91;100.00;97224.13;4935968;28;20317;-71
2023/06/27 06:03:59;;;;;;;1.97;1.77;;;;;;;17.00;99.34;97220.13;4935566;28;20265;-71
2023/06/27 06:06:27;;;;;;;5.20;2.30;;;;;;;16.97;99.76;97228.56;4938582;28;20299;-71
2023/06/27 06:08:55;;;;;;;1.77;1.67;;;;;;;17.10;100.00;97224.13;4935222;28;20263;-71
2023/06/27 06:11:22;;;;;;;2.10;1.90;;;;;;;17.16;99.50;97231.25;4929555;28;20250;-70
2023/06/27 06:13:50;;;;;;;4.03;2.40;;;;;;;17.09;100.00;97222.50;4880644;28;21156;-70
2023/06/27 06:16:19;;;;;;;24.10;12.13;;;;;;;17.04;100.00;97228.50;4889028;28;20337;-71
2023/06/27 06:18:47;;;;;;;1.83;1.70;;;;;;;17.07;100.00;97231.56;4936092;28;20258;-70
2023/06/27 06:21:14;;;;;;;2.13;1.97;;;;;;;17.32;99.37;97227.13;4934496;28;20314;-70
2023/06/27 06:23:42;;;;;;;2.73;1.53;;;;;;;17.15;100.00;97225.09;4913224;28;20298;-69
2023/06/27 06:26:10;;;;;;;2.50;1.87;;;;;;;17.42;100.00;97238.13;4899331;28;20245;-70
2023/06/27 06:28:37;;;;;;;2.07;1.70;;;;;;;17.41;98.15;97243.72;4932866;28;20353;-71
2023/06/27 06:31:06;;;;;;;2.17;1.97;;;;;;;17.59;99.73;97240.97;4938545;28;20682;-70
2023/06/27 06:33:35;;;;;;;1.80;1.70;;;;;;;17.62;94.24;97239.72;4938329;28;20221;-70
2023/06/27 06:36:04;;;;;;;2.13;1.93;;;;;;;17.82;95.79;97241.31;4937875;28;20203;-70
2023/06/27 06:38:31;;;;;;;2.03;1.80;;;;;;;17.94;94.25;97244.81;4930139;28;20210;-68
2023/06/27 06:40:59;;;;;;;2.07;1.97;;;;;;;17.86;95.29;97234.44;4934143;28;20773;-69
2023/06/27 06:43:27;;;;;;;6.97;2.37;;;;;;;17.73;94.71;97235.44;4930331;28;20313;-68
2023/06/27 06:45:54;;;;;;;2.23;2.03;;;;;;;17.57;95.36;97247.63;4935153;28;20274;-68
2023/06/27 06:48:23;;;;;;;3.10;1.77;;;;;;;17.65;95.71;97253.50;4934833;28;20298;-68
2023/06/27 06:50:53;;;;;;;2.60;1.73;;;;;;;17.75;93.77;97258.28;4843321;28;20231;-68
2023/06/27 06:53:21;;;;;;;2.23;2.03;;;;;;;17.72;94.97;97252.56;4934113;28;20230;-69
2023/06/27 06:55:48;;;;;;;2.87;1.90;;;;;;;17.79;94.31;97254.09;4925710;28;20211;-68
2023/06/27 06:58:17;;;;;;;2.27;1.77;;;;;;;17.59;93.16;97258.94;4931840;28;20529;-67
2023/06/27 07:00:44;;;;;;;3.63;2.43;;;;;;;17.68;93.53;97254.88;4876031;28;20698;-68
2023/06/27 07:03:12;;;;;;;2.37;2.00;;;;;;;17.65;94.00;97263.38;4936743;28;20666;-68
2023/06/27 07:05:41;;;;;;;1.63;1.40;;;;;;;17.61;93.40;97263.00;4935439;28;20210;-68
2023/06/27 07:08:11;;;;;;;2.30;1.73;;;;;;;17.76;92.52;97267.16;4934295;28;20298;-68
2023/06/27 07:10:38;;;;;;;1.63;1.53;;;;;;;18.09;91.33;97263.19;4933189;28;20318;-68
2023/06/27 07:13:06;;;;;;;2.10;1.93;;;;;;;18.31;87.09;97270.66;4939186;28;20567;-67
2023/06/27 07:15:34;;;;;;;1.47;1.37;;;;;;;18.44;86.41;97259.72;4930626;28;20230;-68
2023/06/27 07:18:01;;;;;;;1.60;1.50;;;;;;;18.34;83.87;97270.19;4941337;28;20230;-69
2023/06/27 07:20:29;;;;;;;2.30;2.00;;;;;;;17.87;87.03;97263.69;4834458;28;20226;-68
2023/06/27 07:22:57;;;;;;;10.77;2.37;;;;;;;17.88;84.88;97272.53;4941669;28;20595;-68
2023/06/27 07:25:28;;;;;;;1.47;1.37;;;;;;;17.86;83.10;97275.44;4924955;28;20204;-69
2023/06/27 07:27:56;;;;;;;3.10;1.40;;;;;;;17.79;78.88;97266.69;4931905;28;20215;-67
2023/06/27 07:30:23;;;;;;;8.30;2.03;;;;;;;17.92;80.68;97268.34;4882087;28;20269;-69
2023/06/27 07:32:51;;;;;;;6.77;2.30;;;;;;;17.73;78.47;97270.28;4941526;28;20203;-67
2023/06/27 07:35:19;;;;;;;3.07;1.67;;;;;;;17.81;80.99;97272.63;4886741;28;23437;-67
2023/06/27 07:37:47;;;;;;;3.33;1.57;;;;;;;17.96;77.91;97261.50;4931453;28;20880;-66
2023/06/27 07:40:15;;;;;;;1.80;1.40;;;;;;;18.08;75.96;97258.88;4927096;28;20508;-66
2023/06/27 07:42:44;;;;;;;2.67;1.17;;;;;;;18.20;74.46;97258.91;4934920;28;20242;-67
2023/06/27 07:45:11;;;;;;;2.00;1.63;;;;;;;18.27;70.52;97266.81;4932602;28;20219;-68
2023/06/27 07:47:39;;;;;;;3.87;1.60;;;;;;;18.36;75.02;97249.31;4936984;28;20208;-67
2023/06/27 07:50:08;;;;;;;4.00;1.77;;;;;;;18.82;72.66;97272.91;4887321;28;20224;-66
2023/06/27 07:52:36;;;;;;;3.27;1.93;;;;;;;19.45;70.64;97259.69;4895598;28;20578;-70
2023/06/27 07:55:04;;;;;;;1.30;1.30;;;;;;;19.57;66.75;97255.09;4932035;28;20491;-68
2023/06/27 07:57:32;;;;;;;2.87;1.53;;;;;;;19.57;63.77;97255.09;4934964;28;20239;-68
2023/06/27 08:00:01;;;;;;;2.20;1.57;;;;;;;19.38;68.28;97251.78;4921661;28;20295;-68
2023/06/27 08:02:28;;;;;;;5.57;2.23;;;;;;;19.52;66.44;97249.63;4906772;28;20231;-69
2023/06/27 08:04:57;;;;;;;2.90;1.53;;;;;;;19.59;65.78;97252.16;4936166;28;20282;-68
2023/06/27 08:07:24;;;;;;;2.87;1.80;;;;;;;19.21;64.18;97262.47;4938204;28;20207;-70
2023/06/27 08:09:52;;;;;;;1.87;1.77;;;;;;;18.89;67.83;97252.91;4934466;28;20230;-69
2023/06/27 08:12:20;;;;;;;4.10;1.83;;;;;;;18.78;65.02;97251.91;4930655;28;20226;-68
2023/06/27 08:14:49;;;;;;;3.63;1.67;;;;;;;18.57;63.92;97252.47;4936261;28;20203;-68
2023/06/27 08:17:18;;;;;;;2.60;1.50;;;;;;;18.35;66.96;97250.38;4936625;28;20216;-68
2023/06/27 08:19:46;;;;;;;1.47;1.40;;;;;;;18.21;64.53;97260.53;4934576;28;20802;-70
2023/06/27 08:22:14;;;;;;;1.57;1.47;;;;;;;18.15;64.17;97251.53;4931157;28;20254;-68
2023/06/27 08:24:41;;;;;;;1.43;1.30;;;;;;;18.13;66.27;97250.94;4932296;28;20854;-68
2023/06/27 08:27:09;;;;;;;1.47;1.37;;;;;;;18.10;68.19;97250.56;4839876;28;20266;-70
2023/06/27 08:29:37;;;;;;;2.23;1.57;;;;;;;17.94;67.66;97256.34;4868768;28;20253;-73
2023/06/27 08:32:05;;;;;;;1.40;1.20;;;;;;;17.67;68.11;97250.56;4940834;28;20227;-68
2023/06/27 08:34:38;;;;;;;1.50;1.40;;;;;;;17.86;70.04;97251.31;4879541;28;20211;-70
2023/06/27 08:37:06;;;;;;;2.60;2.40;;;;;;;17.88;69.15;97253.78;4868448;28;20269;-68
2023/06/27 08:39:34;;;;;;;1.53;1.43;;;;;;;17.65;71.69;97225.88;4936435;28;20282;-69
2023/06/27 08:42:02;;;;;;;2.33;1.90;;;;;;;17.61;68.95;97240.75;4926198;28;21107;-70
2023/06/27 08:44:29;;;;;;;1.63;1.30;;;;;;;17.69;67.20;97245.00;4934720;28;20238;-72
2023/06/27 08:46:59;;;;;;;1.37;1.27;;;;;;;17.68;65.80;97252.19;4935701;28;20211;-69
2023/06/27 08:49:27;;;;;;;1.40;1.30;;;;;;;17.79;62.43;97245.25;4937400;28;20273;-68
2023/06/27 08:51:57;;;;;;;1.83;1.30;;;;;;;17.93;64.03;97254.72;4929793;28;20234;-69
2023/06/27 08:54:30;;;;;;;1.73;1.63;;;;;;;18.12;62.52;97240.44;4930383;28;20282;-69
2023/06/27 08:56:59;;;;;;;1.90;1.80;;;;;;;18.28;63.48;97247.00;4832235;28;21097;-69
2023/06/27 08:59:31;;;;;;;2.00;1.77;;;;;;;18.41;64.10;97243.25;4933560;28;20455;-68
2023/06/27 09:02:00;;;;;;;3.97;2.17;;;;;;;18.77;61.06;97242.22;4934671;28;20234;-69
2023/06/27 09:04:28;;;;;;;2.83;1.33;;;;;;;18.77;61.06;97244.91;4932359;28;20214;-70
2023/06/27 09:06:57;;;;;;;1.57;1.30;;;;;;;19.14;61.40;97251.03;4882956;28;20209;-69
2023/06/27 09:09:25;;;;;;;1.50;1.40;;;;;;;19.33;58.79;97233.69;4940364;28;20202;-70
2023/06/27 09:11:53;;;;;;;2.87;1.73;;;;;;;19.53;56.75;97243.19;4928379;28;20644;-71
2023/06/27 09:14:20;;;;;;;1.30;1.20;;;;;;;19.41;55.85;97234.34;4935154;28;21170;-68
2023/06/27 09:16:48;;;;;;;1.53;1.33;;;;;;;19.55;53.68;97241.09;4931824;28;20247;-69
2023/06/27 09:19:16;;;;;;;2.37;1.23;;;;;;;19.48;53.22;97237.72;4938506;28;20207;-68
2023/06/27 09:21:45;;;;;;;2.10;1.70;;;;;;;19.51;52.33;97248.81;4935928;28;20316;-70
2023/06/27 09:24:14;;;;;;;3.10;1.30;;;;;;;19.65;52.28;97248.50;4932551;28;20289;-69
2023/06/27 09:26:42;;;;;;;2.40;1.30;;;;;;;19.55;50.93;97241.09;4919477;28;20720;-70
2023/06/27 09:29:09;;;;;;;1.47;1.40;;;;;;;19.31;51.45;97246.53;4936820;28;20243;-71
2023/06/27 09:31:37;;;;;;;1.83;1.30;;;;;;;19.46;52.57;97243.34;4830055;28;22037;-68
2023/06/27 09:34:05;;;;;;;2.53;1.70;;;;;;;19.69;53.65;97244.25;4939850;28;20354;-69
2023/06/27 09:36:37;;;;;;;1.40;1.30;;;;;;;20.00;51.50;97235.97;4937243;28;20211;-70
2023/06/27 09:39:08;;;;;;;2.20;1.13;;;;;;;19.67;51.36;97243.69;4933422;28;20949;-69
2023/06/27 09:41:45;;;;;;;1.33;1.23;;;;;;;19.79;52.44;97236.41;4869939;28;20406;-68
2023/06/27 09:44:15;;;;;;;3.57;1.30;;;;;;;19.61;52.25;97242.81;4930348;28;20211;-71
2023/06/27 09:46:43;;;;;;;2.57;1.50;;;;;;;19.97;54.47;97236.47;4935127;28;20262;-69
2023/06/27 09:49:12;;;;;;;1.00;1.00;;;;;;;19.62;51.60;97233.69;4937484;28;20233;-69
2023/06/27 09:51:40;;;;;;;1.57;1.40;;;;;;;19.62;51.65;97230.16;4923751;28;20231;-69
2023/06/27 09:54:07;;;;;;;1.20;1.17;;;;;;;20.15;50.46;97232.72;4931890;28;20234;-69
2023/06/27 09:56:35;;;;;;;2.03;1.73;;;;;;;20.57;48.77;97231.44;4933131;28;20751;-69
2023/06/27 09:59:09;;;;;;;2.83;1.50;;;;;;;20.42;50.70;97226.66;4933425;28;20263;-69
2023/06/27 10:01:57;;;;;;;1.33;1.10;;;;;;;20.73;46.78;97227.91;4888055;28;20238;-69
2023/06/27 10:04:25;;;;;;;2.33;1.37;;;;;;;21.01;45.49;97228.81;4933866;28;20305;-70
2023/06/27 10:06:55;;;;;;;1.40;1.40;;;;;;;21.50;47.06;97224.53;4843348;28;20222;-69
2023/06/27 10:09:23;;;;;;;2.07;0.93;;;;;;;21.36;45.39;97229.50;4932014;28;20207;-71
2023/06/27 10:11:51;;;;;;;1.53;1.43;;;;;;;20.98;43.95;97231.22;4923324;28;20227;-69
2023/06/27 10:14:21;;;;;;;1.50;1.30;;;;;;;20.79;44.77;97226.94;4935671;28;20239;-69
2023/06/27 10:16:49;;;;;;;1.53;1.43;;;;;;;20.74;44.49;97229.53;4877736;28;20218;-69
2023/06/27 10:19:17;;;;;;;1.43;1.33;;;;;;;20.49;44.23;97228.09;4938034;28;20210;-70
2023/06/27 10:21:45;;;;;;;3.07;1.47;;;;;;;20.44;46.32;97224.53;4872047;28;20694;-71
2023/06/27 10:24:13;;;;;;;1.67;1.20;;;;;;;20.44;44.66;97236.09;4919474;28;20740;-68
2023/06/27 10:26:41;;;;;;;2.10;1.00;;;;;;;20.35;44.36;97233.00;4926005;28;20262;-68
2023/06/27 10:29:16;;;;;;;2.63;1.43;;;;;;;20.53;45.05;97228.44;4932160;28;20258;-69
2023/06/27 10:31:45;;;;;;;1.50;1.40;;;;;;;20.27;45.53;97229.91;4927980;28;20226;-70
2023/06/27 10:34:20;;;;;;;3.03;1.53;;;;;;;19.92;46.35;97219.19;4936920;28;20824;-69
2023/06/27 10:36:52;;;;;;;1.30;1.30;;;;;;;19.97;46.30;97218.44;4830045;28;20263;-70
2023/06/27 10:39:30;;;;;;;1.60;1.13;;;;;;;20.11;46.01;97216.25;4937661;28;20200;-68
2023/06/27 10:42:02;;;;;;;5.03;1.90;;;;;;;20.05;46.71;97209.16;4926247;28;20223;-69
2023/06/27 10:44:30;;;;;;;1.67;1.30;;;;;;;19.77;46.20;97206.25;4930064;28;20667;-68
2023/06/27 10:47:29;;;;;;;2.07;1.43;;;;;;;19.90;47.17;97207.84;4886689;28;20207;-69
2023/06/27 10:50:11;;;;;;;2.50;1.23;;;;;;;20.18;47.33;97211.50;4892648;28;20215;-69
2023/06/27 10:52:40;;;;;;;2.27;1.23;;;;;;;20.50;46.31;97199.34;4936237;28;20263;-69
2023/06/27 10:55:23;;;;;;;2.60;1.33;;;;;;;20.84;46.13;97212.75;4934366;28;20235;-70
2023/06/27 10:57:57;;;;;;;1.47;1.37;;;;;;;20.57;45.36;97202.66;4929655;28;20763;-69
2023/06/27 11:00:28;;;;;;;1.73;1.60;;;;;;;20.78;45.84;97198.34;4933816;28;20311;-69
2023/06/27 11:02:57;;;;;;;2.47;1.60;;;;;;;21.02;45.27;97198.13;4942184;28;20210;-69
2023/06/27 11:05:45;;;;;;;1.60;1.50;;;;;;;21.34;44.11;97207.38;4877062;28;20630;-70
2023/06/27 11:08:15;;;;;;;1.47;1.37;;;;;;;21.51;45.13;97185.72;4935218;28;20903;-70
2023/06/27 11:10:51;;;;;;;1.27;1.23;;;;;;;21.27;44.05;97193.31;4836652;28;20227;-69
2023/06/27 11:13:21;;;;;;;1.77;1.40;;;;;;;21.26;46.03;97195.16;4954372;28;21016;-70
2023/06/27 11:15:51;;;;;;;3.17;1.40;;;;;;;21.37;44.81;97199.59;4971093;28;20798;-70
2023/06/27 11:18:25;;;;;;;2.10;1.50;;;;;;;21.47;43.55;97196.19;4979331;28;20202;-70
2023/06/27 11:20:52;;;;;;;2.00;1.60;;;;;;;21.43;42.58;97196.97;4857984;28;20795;-70
2023/06/27 11:23:21;;;;;;;1.70;1.60;;;;;;;21.72;42.88;97194.84;4979902;28;20803;-70
2023/06/27 11:25:50;;;;;;;1.60;1.50;;;;;;;21.68;42.44;97188.34;4974188;28;20209;-70
2023/06/27 11:28:19;;;;;;;2.53;1.43;;;;;;;21.79;43.51;97183.84;4972485;28;20364;-70
2023/06/27 11:30:47;;;;;;;1.53;1.43;;;;;;;22.31;41.79;97187.72;4966166;28;20249;-70
2023/06/27 11:33:16;;;;;;;1.90;1.80;;;;;;;22.30;43.25;97194.19;4979642;28;20202;-70
2023/06/27 11:35:45;;;;;;;3.20;1.57;;;;;;;22.01;40.96;97191.84;4929311;28;21267;-70
2023/06/27 11:38:13;;;;;;;1.77;1.67;;;;;;;21.58;42.14;97199.81;4981527;28;20237;-70
2023/06/27 11:40:48;;;;;;;1.57;1.47;;;;;;;21.35;42.82;97190.94;4873638;28;20872;-68